Daegu, South Korea

9:52 PM KST on January 25, 2015 (GMT +0900)
Daegu | Change Station
CLOSE
Current Station
Airport
Location: Daegu AB,
Elevation: 115 ft
Nearby Weather Stations

Elev 115 ft 35.89 °N, 128.66 °E | Updated 52 minutes ago

Light Rain
Light Rain Mist
41 °F
Feels Like 41 °F
N
1
Wind Variable Wind from NE

Today
High -- | Low -- °F
--% Chance of Precip.
Yesterday
High -- | Low -- °F
Precip. -- in
7:31 AM 5:44 PM
Waxing Crescent, 32% visible
Pressure 30.18 in
Visibility -9999.0 miles
Clouds Mostly Cloudy 3000 ft
Overcast 5000 ft
Dew Point 36 °F
Humidity 81%
Rainfall 0.00 in
Snow Depth Not available.
UV 0 out of 12
Pollen Not available.
Air Quality Not available.
Flu Activity Not available.
METAR RKTN 251200Z 04001KT 4800 -RA BR BKN030 OVC050 05/02 Q1022 NOSIG

More Conditions Fewer Conditions

Pressure 30.18 in
Visibility -9999.0 miles
Clouds Mostly Cloudy 3000 ft
Overcast 5000 ft
Dew Point 36 °F
Humidity 81%
Rainfall 0.00 in
Snow Depth Not available.
UV 0 out of 12
Pollen Not available.
Air Quality Not available.
Flu Activity Not available.
METAR RKTN 251200Z 04001KT 4800 -RA BR BKN030 OVC050 05/02 Q1022 NOSIG

More Conditions Fewer Conditions

10-Day Weather Forecast

Almanac

Astronomy

Jan. 25, 2015 Rise Set
Actual Time
Civil Twilight
Nautical Twilight
Astronomical Twilight
Moon
Length of Visible Light
Length of Day
Tomorrow will be .
, % of the Moon is Illuminated

Today's Extremes

Country Highs Country Lows

Community

WunderPhotos

Upload Photos

1,789,875 photos uploaded!

WunderBlogs® & News

Nearby

Air Quality

  Air Quality AQ Index Pollutant
Not available.

Snow Depth

Station Depth Elevation

Earthquake Activity

City Distance Mag. Time & Date
Minimum magnitude displayed is 2.5.

Coastal Water Temperatures

Place Temperature

Nearby Weather Stations